Time;durP1;ratioP1;P1;durP2;ratioP2;P2;SDS_P1;SDS_P2;PMS_P1;PMS_P2;Temp;Humidity;BMP_temperature;BMP_pressure;BME280_temperature;BME280_humidity;BME280_pressure;Samples;Min_cycle;Max_cycle;Signal;HPM_P1;HPM_P2
2022/11/04 00:01:24;;;;;;;2.67;1.20;;;11.60;99.90;;;;;;5006533;28;20041;-78
2022/11/04 00:03:51;;;;;;;3.92;1.20;;;11.60;99.90;;;;;;5027358;28;20043;-77
2022/11/04 00:06:17;;;;;;;3.63;1.27;;;11.60;99.90;;;;;;5036106;28;20037;-78
2022/11/04 00:08:54;;;;;;;2.28;0.90;;;11.50;99.90;;;;;;5005884;28;20052;-76
2022/11/04 00:14:07;;;;;;;3.25;0.82;;;11.50;99.90;;;;;;5002229;28;20051;-78
2022/11/04 00:19:17;;;;;;;4.13;1.23;;;11.50;99.90;;;;;;5029290;28;20036;-76
2022/11/04 00:29:54;;;;;;;1.63;0.50;;;11.40;99.90;;;;;;5023329;28;20459;-77
2022/11/04 00:35:05;;;;;;;3.88;0.40;;;11.30;99.90;;;;;;5012171;28;20055;-79
2022/11/04 00:37:30;;;;;;;2.92;0.57;;;11.20;99.90;;;;;;5011036;28;20489;-78
2022/11/04 00:39:56;;;;;;;3.45;0.85;;;11.30;99.90;;;;;;5008864;28;20035;-78
2022/11/04 00:42:22;;;;;;;2.50;0.50;;;11.30;99.90;;;;;;5025277;28;20673;-79
2022/11/04 00:44:47;;;;;;;1.75;0.50;;;11.30;99.90;;;;;;5023934;28;21022;-78
2022/11/04 00:47:13;;;;;;;1.35;0.45;;;11.30;99.90;;;;;;5024643;28;22142;-77
2022/11/04 00:49:38;;;;;;;2.47;0.43;;;11.30;99.90;;;;;;5010322;28;20099;-77
2022/11/04 00:52:04;;;;;;;2.90;0.43;;;11.30;99.90;;;;;;5010626;28;20123;-79
2022/11/04 00:54:30;;;;;;;4.25;0.55;;;11.40;99.90;;;;;;4993795;28;20452;-78
2022/11/04 00:56:56;;;;;;;2.28;0.43;;;11.30;99.90;;;;;;4993659;28;20041;-77
2022/11/04 00:59:21;;;;;;;4.53;0.55;;;11.30;99.90;;;;;;5044090;28;20065;-79
2022/11/04 01:01:47;;;;;;;2.83;0.52;;;11.30;99.90;;;;;;5024533;28;20913;-78
2022/11/04 01:04:13;;;;;;;4.47;0.57;;;11.30;99.90;;;;;;5021154;28;20041;-76
2022/11/04 01:06:38;;;;;;;3.17;0.47;;;11.30;99.90;;;;;;5025609;28;20040;-78
2022/11/04 01:09:07;;;;;;;2.67;0.77;;;11.30;99.90;;;;;;5011453;28;20115;-78
2022/11/04 01:11:33;;;;;;;4.40;0.90;;;11.30;99.90;;;;;;5049521;28;20049;-80
2022/11/04 01:13:59;;;;;;;4.30;0.70;;;11.30;99.90;;;;;;5031032;28;20045;-78
2022/11/04 01:16:26;;;;;;;6.57;0.80;;;11.20;99.90;;;;;;5029982;28;20115;-79
2022/11/04 01:18:53;;;;;;;5.78;0.80;;;11.20;99.90;;;;;;5032510;28;20163;-78
2022/11/04 01:21:19;;;;;;;6.20;0.70;;;11.20;99.90;;;;;;5031850;28;20033;-79
2022/11/04 01:23:45;;;;;;;7.07;0.75;;;11.10;99.90;;;;;;5030606;28;20037;-79
2022/11/04 01:26:14;;;;;;;5.18;0.77;;;11.10;99.90;;;;;;5013208;28;20068;-77
2022/11/04 01:28:40;;;;;;;5.18;0.90;;;11.10;99.90;;;;;;5013152;28;20044;-78
2022/11/04 01:31:29;;;;;;;5.53;0.75;;;11.10;99.90;;;;;;5031150;28;20397;-77
2022/11/04 01:33:56;;;;;;;10.43;0.90;;;11.10;99.90;;;;;;5024135;28;20132;-78
2022/11/04 01:36:22;;;;;;;7.43;0.85;;;11.10;99.90;;;;;;5027875;28;20120;-78
2022/11/04 01:38:48;;;;;;;5.43;0.70;;;11.10;99.90;;;;;;5017438;28;20045;-77
2022/11/04 01:41:26;;;;;;;8.45;1.60;;;11.20;99.90;;;;;;5015120;28;20067;-78
2022/11/04 01:43:59;;;;;;;6.72;1.05;;;11.10;99.90;;;;;;5015389;28;20033;-76
2022/11/04 01:46:46;;;;;;;8.43;0.93;;;11.10;99.90;;;;;;5032382;28;20079;-79
2022/11/04 01:49:29;;;;;;;6.55;1.05;;;11.20;99.90;;;;;;5015967;28;21873;-78
2022/11/04 01:52:10;;;;;;;5.35;0.75;;;11.10;99.90;;;;;;5010490;28;20044;-78
2022/11/04 01:54:37;;;;;;;4.82;0.75;;;11.20;99.90;;;;;;5023038;28;20040;-77
2022/11/04 01:57:06;;;;;;;8.88;1.00;;;11.20;99.90;;;;;;4998890;28;20029;-76
2022/11/04 01:59:37;;;;;;;2.42;0.77;;;11.20;99.90;;;;;;5029137;28;20032;-77
2022/11/04 02:02:03;;;;;;;8.30;0.75;;;11.20;99.90;;;;;;5032443;28;20048;-79
2022/11/04 02:04:30;;;;;;;6.32;0.70;;;11.20;99.90;;;;;;5012676;28;20041;-79
2022/11/04 02:06:59;;;;;;;4.70;0.63;;;11.30;99.90;;;;;;5030215;28;20037;-78
2022/11/04 02:09:28;;;;;;;9.00;0.65;;;11.20;99.90;;;;;;5031900;28;20520;-79
2022/11/04 02:14:38;;;;;;;;;;;11.30;99.90;;;;;;5048192;28;20079;-79
2022/11/04 02:17:19;;;;;;;9.02;0.90;;;11.20;99.90;;;;;;5049982;28;20149;-78
2022/11/04 02:19:48;;;;;;;8.82;0.98;;;11.20;99.90;;;;;;5015485;28;20052;-77
2022/11/04 02:22:35;;;;;;;5.55;0.93;;;11.30;99.90;;;;;;5030203;28;20052;-77
2022/11/04 02:25:38;;;;;;;6.50;0.98;;;11.20;99.90;;;;;;5029534;28;20699;-77
2022/11/04 02:28:26;;;;;;;5.70;0.88;;;11.20;99.90;;;;;;5026537;28;20056;-79
2022/11/04 02:31:20;;;;;;;4.85;0.63;;;11.30;99.90;;;;;;5028361;28;20059;-78
2022/11/04 02:33:59;;;;;;;10.18;1.05;;;11.30;99.90;;;;;;5032590;28;20041;-79
2022/11/04 02:36:33;;;;;;;7.38;1.08;;;11.30;99.90;;;;;;5034094;28;20068;-79
2022/11/04 02:39:25;;;;;;;7.50;1.70;;;11.30;99.90;;;;;;5032455;28;20041;-79
2022/11/04 02:41:57;;;;;;;6.78;0.75;;;11.30;99.90;;;;;;5018264;28;20766;-79
2022/11/04 02:44:26;;;;;;;4.90;0.93;;;11.30;99.90;;;;;;5024673;28;20509;-78
2022/11/04 02:47:01;;;;;;;7.03;1.23;;;11.30;99.90;;;;;;5033868;28;20044;-77
2022/11/04 02:49:40;;;;;;;5.30;0.60;;;11.30;99.90;;;;;;5041813;28;20044;-79
2022/11/04 02:52:11;;;;;;;2.40;0.70;;;11.30;99.90;;;;;;5027820;28;20067;-79
2022/11/04 02:54:51;;;;;;;7.60;0.98;;;11.20;99.90;;;;;;5010006;28;20114;-78
2022/11/04 02:57:23;;;;;;;3.65;0.90;;;11.20;99.90;;;;;;5029637;28;20033;-79
2022/11/04 02:59:54;;;;;;;6.63;1.33;;;11.20;99.90;;;;;;5044620;28;20045;-79
2022/11/04 03:02:39;;;;;;;7.50;0.90;;;11.20;99.90;;;;;;5030843;28;20037;-78
2022/11/04 03:05:09;;;;;;;12.60;2.60;;;11.20;99.90;;;;;;5015520;28;20484;-79
2022/11/04 03:07:39;;;;;;;5.03;0.90;;;11.20;99.90;;;;;;5042455;28;20586;-78
2022/11/04 03:10:10;;;;;;;6.03;1.30;;;11.20;99.90;;;;;;5014639;28;20045;-79
2022/11/04 03:12:52;;;;;;;4.82;0.85;;;11.20;99.90;;;;;;5034002;28;20052;-77
2022/11/04 03:15:28;;;;;;;4.57;0.80;;;11.20;99.90;;;;;;5015070;28;20041;-79
2022/11/04 03:18:03;;;;;;;6.43;0.95;;;11.20;99.90;;;;;;5018092;28;20033;-79
2022/11/04 03:20:30;;;;;;;6.97;1.33;;;11.20;99.90;;;;;;5049508;28;20091;-77
2022/11/04 03:22:59;;;;;;;6.25;1.15;;;11.20;99.90;;;;;;5018132;28;20045;-79
2022/11/04 03:25:46;;;;;;;2.60;0.90;;;11.10;99.90;;;;;;4998214;28;20048;-79
2022/11/04 03:28:30;;;;;;;6.25;1.08;;;11.10;99.90;;;;;;5014196;28;20048;-78
2022/11/04 03:31:01;;;;;;;7.03;1.17;;;11.10;99.90;;;;;;5028659;28;20138;-79
2022/11/04 03:33:44;;;;;;;6.60;1.17;;;11.10;99.90;;;;;;5042311;28;20041;-79
2022/11/04 03:36:10;;;;;;;6.97;1.40;;;11.10;99.90;;;;;;5013697;28;20128;-77
2022/11/04 03:38:37;;;;;;;7.68;1.23;;;11.00;99.90;;;;;;5028949;28;20124;-79
2022/11/04 03:41:09;;;;;;;2.67;0.80;;;11.00;99.90;;;;;;5023844;28;20051;-78
2022/11/04 03:43:36;;;;;;;3.95;0.80;;;10.90;99.90;;;;;;5026351;28;20408;-78
2022/11/04 03:46:02;;;;;;;6.18;0.85;;;11.10;99.90;;;;;;5027599;28;20526;-79
2022/11/04 03:48:28;;;;;;;5.15;0.82;;;10.90;99.90;;;;;;5026605;28;20055;-76
2022/11/04 03:50:54;;;;;;;2.63;0.60;;;10.90;99.90;;;;;;5008262;28;20053;-80
2022/11/04 03:53:22;;;;;;;2.92;1.05;;;10.90;99.90;;;;;;4991147;28;20414;-79
2022/11/04 03:56:10;;;;;;;3.88;0.70;;;10.90;99.90;;;;;;5009809;28;20405;-78
2022/11/04 03:58:47;;;;;;;3.05;0.60;;;10.80;99.90;;;;;;5009399;28;20033;-79
2022/11/04 04:01:40;;;;;;;3.55;0.60;;;10.80;99.90;;;;;;5012978;28;20040;-77
2022/11/04 04:04:29;;;;;;;6.63;0.95;;;10.80;99.90;;;;;;5028675;28;20637;-78
2022/11/04 04:07:03;;;;;;;3.35;0.93;;;10.80;99.90;;;;;;5026617;28;20045;-76
2022/11/04 04:09:40;;;;;;;3.00;0.88;;;10.70;99.90;;;;;;5028326;28;20408;-78
2022/11/04 04:12:15;;;;;;;5.05;0.73;;;10.70;99.90;;;;;;5028015;28;20036;-77
2022/11/04 04:14:50;;;;;;;4.05;0.70;;;10.60;99.90;;;;;;5044210;28;20046;-77
2022/11/04 04:17:37;;;;;;;2.53;0.70;;;10.70;99.90;;;;;;5011589;28;20157;-78
2022/11/04 04:20:06;;;;;;;4.65;1.00;;;10.70;99.90;;;;;;5025176;28;20033;-76
2022/11/04 04:23:02;;;;;;;4.35;1.00;;;10.70;99.90;;;;;;5008003;28;20041;-77
2022/11/04 04:28:17;;;;;;;3.25;0.60;;;10.70;99.90;;;;;;5025937;28;20051;-78
2022/11/04 04:30:43;;;;;;;4.40;0.80;;;10.70;99.90;;;;;;5013197;28;20056;-76
2022/11/04 04:33:15;;;;;;;3.53;0.60;;;10.70;99.90;;;;;;4998371;28;20428;-78
2022/11/04 04:35:59;;;;;;;3.17;0.70;;;10.70;99.90;;;;;;5030278;28;20124;-80
2022/11/04 04:47:00;;;;;;;3.85;0.65;;;10.70;99.90;;;;;;5030965;28;20128;-79
2022/11/04 04:49:33;;;;;;;2.38;0.70;;;10.70;99.90;;;;;;5030063;28;20080;-79
2022/11/04 04:52:00;;;;;;;2.50;0.70;;;10.70;99.90;;;;;;4983762;28;20041;-79
2022/11/04 04:54:26;;;;;;;4.97;0.82;;;10.60;99.90;;;;;;5014814;28;20048;-80
2022/11/04 04:56:52;;;;;;;4.35;1.33;;;10.70;99.90;;;;;;5010119;28;20044;-78
2022/11/04 04:59:18;;;;;;;4.60;0.73;;;10.70;99.90;;;;;;5033829;28;20116;-77
2022/11/04 05:01:43;;;;;;;2.20;0.52;;;10.60;99.90;;;;;;5015537;28;20501;-79
2022/11/04 05:04:09;;;;;;;3.63;0.85;;;10.60;99.90;;;;;;5015760;28;20032;-79
2022/11/04 05:06:35;;;;;;;3.72;0.80;;;10.60;99.90;;;;;;5029544;28;20032;-79
2022/11/04 05:09:00;;;;;;;5.18;0.95;;;10.60;99.90;;;;;;5034385;28;20116;-79
2022/11/04 05:11:26;;;;;;;5.20;0.70;;;10.60;99.90;;;;;;5010269;28;20034;-78
2022/11/04 05:13:52;;;;;;;3.50;1.00;;;10.60;99.90;;;;;;5009802;28;20516;-78
2022/11/04 05:16:18;;;;;;;4.65;0.98;;;10.80;99.90;;;;;;5005129;28;20033;-79
2022/11/04 05:18:43;;;;;;;5.43;0.60;;;10.70;99.90;;;;;;5026211;28;20453;-78
2022/11/04 05:21:14;;;;;;;3.60;1.05;;;10.50;99.90;;;;;;5026601;28;20037;-78
2022/11/04 05:23:40;;;;;;;4.75;1.13;;;10.50;99.90;;;;;;5019826;28;20052;-78
2022/11/04 05:26:05;;;;;;;4.22;0.70;;;10.60;99.90;;;;;;4993498;28;20036;-76
2022/11/04 05:28:32;;;;;;;4.32;1.05;;;10.60;99.90;;;;;;5025861;28;20037;-77
2022/11/04 05:31:02;;;;;;;7.85;1.17;;;10.60;99.90;;;;;;5015712;28;20072;-77
2022/11/04 05:33:28;;;;;;;3.10;0.77;;;10.60;99.90;;;;;;5026241;28;20501;-76
2022/11/04 05:35:54;;;;;;;4.90;0.90;;;10.50;99.90;;;;;;5011892;28;20106;-79
2022/11/04 05:38:19;;;;;;;4.57;0.93;;;10.60;99.90;;;;;;5014233;28;22834;-78
2022/11/04 05:40:45;;;;;;;5.10;0.85;;;10.50;99.90;;;;;;4995957;28;20416;-79
2022/11/04 05:43:11;;;;;;;4.18;1.17;;;10.50;99.90;;;;;;4993459;28;20045;-76
2022/11/04 05:45:36;;;;;;;2.75;0.70;;;10.50;99.90;;;;;;5042053;28;20871;-78
2022/11/04 05:48:04;;;;;;;5.50;0.73;;;10.40;99.90;;;;;;5004959;28;20044;-78
2022/11/04 05:50:31;;;;;;;6.80;1.10;;;10.40;99.90;;;;;;5025984;28;20045;-79
2022/11/04 05:52:58;;;;;;;3.47;0.90;;;10.40;99.90;;;;;;5025156;28;20041;-78
2022/11/04 05:55:25;;;;;;;2.75;0.82;;;10.40;99.90;;;;;;5020477;28;20067;-78
2022/11/04 05:57:51;;;;;;;5.18;0.77;;;10.40;99.90;;;;;;5013056;28;20079;-79
2022/11/04 06:00:17;;;;;;;5.70;1.17;;;10.40;99.90;;;;;;5028334;28;20034;-78
2022/11/04 06:02:42;;;;;;;3.22;0.95;;;10.40;99.90;;;;;;5026414;28;20116;-77
2022/11/04 06:05:09;;;;;;;4.10;0.82;;;10.40;99.90;;;;;;5008100;28;20132;-74
2022/11/04 06:07:34;;;;;;;4.13;0.80;;;10.30;99.90;;;;;;5026727;28;20052;-76
2022/11/04 06:10:00;;;;;;;5.40;0.90;;;10.30;99.90;;;;;;5009562;28;20040;-77
2022/11/04 06:12:26;;;;;;;6.78;1.40;;;10.30;99.90;;;;;;5026686;28;20056;-77
2022/11/04 06:14:51;;;;;;;4.90;0.90;;;10.30;99.90;;;;;;4976428;28;20068;-75
2022/11/04 06:17:19;;;;;;;4.72;0.98;;;10.30;99.90;;;;;;5013101;28;20106;-79
2022/11/04 06:19:45;;;;;;;5.63;1.10;;;10.20;99.90;;;;;;5030349;28;20045;-79
2022/11/04 06:22:13;;;;;;;4.82;1.40;;;10.20;99.90;;;;;;5030069;28;20117;-76
2022/11/04 06:24:39;;;;;;;3.35;0.90;;;10.20;99.90;;;;;;5026590;28;20128;-78
2022/11/04 06:27:05;;;;;;;5.60;1.02;;;10.10;99.90;;;;;;5033764;28;20428;-78
2022/11/04 06:29:31;;;;;;;10.57;1.48;;;10.10;99.90;;;;;;5013055;28;20055;-77
2022/11/04 06:31:57;;;;;;;3.90;1.10;;;10.10;99.90;;;;;;5015004;28;20517;-76
2022/11/04 06:34:23;;;;;;;5.35;1.10;;;10.10;99.90;;;;;;5018950;28;20099;-78
2022/11/04 06:36:49;;;;;;;5.97;1.08;;;10.00;99.90;;;;;;4999376;28;20104;-78
2022/11/04 06:39:15;;;;;;;5.70;0.95;;;10.00;99.90;;;;;;5032005;28;20543;-78
2022/11/04 06:41:40;;;;;;;7.50;1.10;;;10.00;99.90;;;;;;5018274;28;20041;-78
2022/11/04 06:44:06;;;;;;;5.60;1.33;;;10.00;99.90;;;;;;5031341;28;20029;-77
2022/11/04 06:46:32;;;;;;;5.82;1.52;;;10.00;99.90;;;;;;5013034;28;20061;-77
2022/11/04 06:48:58;;;;;;;10.23;1.40;;;9.90;99.90;;;;;;5031794;28;20094;-78
2022/11/04 06:51:24;;;;;;;4.90;0.77;;;10.00;99.90;;;;;;4995425;28;20051;-77
2022/11/04 06:53:50;;;;;;;4.07;1.20;;;9.90;99.90;;;;;;5008142;28;20540;-77
2022/11/04 06:56:16;;;;;;;2.58;1.10;;;9.90;99.90;;;;;;5025498;28;20045;-78
2022/11/04 06:58:41;;;;;;;6.50;1.48;;;10.00;99.90;;;;;;5030773;28;20037;-78
2022/11/04 07:01:07;;;;;;;6.60;1.25;;;10.00;99.90;;;;;;5027476;28;20082;-77
2022/11/04 07:03:33;;;;;;;8.68;1.50;;;9.90;99.90;;;;;;5028910;28;20126;-78
2022/11/04 07:06:04;;;;;;;5.50;1.40;;;9.90;99.90;;;;;;4993628;28;20037;-77
2022/11/04 07:08:29;;;;;;;5.05;1.67;;;9.90;99.90;;;;;;5012729;28;20051;-77
2022/11/04 07:10:55;;;;;;;9.30;1.83;;;9.90;99.90;;;;;;4991760;28;20045;-79
2022/11/04 07:13:21;;;;;;;6.90;1.60;;;9.90;99.90;;;;;;5032046;28;20119;-78
2022/11/04 07:15:46;;;;;;;10.43;1.50;;;9.90;99.90;;;;;;5025110;28;20077;-79
2022/11/04 07:18:12;;;;;;;6.18;1.02;;;9.90;99.90;;;;;;5028497;28;20045;-79
2022/11/04 07:20:38;;;;;;;5.25;1.30;;;9.80;99.90;;;;;;5029840;28;20305;-77
2022/11/04 07:23:04;;;;;;;5.07;1.35;;;9.80;99.90;;;;;;5025365;28;20044;-79
2022/11/04 07:25:30;;;;;;;8.80;1.50;;;9.70;99.90;;;;;;5013576;28;20390;-79
2022/11/04 07:27:56;;;;;;;4.47;1.38;;;9.80;99.90;;;;;;5037739;28;20764;-78
2022/11/04 07:30:21;;;;;;;5.25;1.15;;;9.80;99.90;;;;;;5025423;28;20123;-77
2022/11/04 07:32:47;;;;;;;4.60;1.00;;;9.90;99.90;;;;;;5032107;28;20048;-78
2022/11/04 07:35:13;;;;;;;4.22;1.27;;;9.90;99.90;;;;;;4994696;28;20041;-78
2022/11/04 07:37:39;;;;;;;8.02;1.45;;;9.80;99.90;;;;;;5012614;28;20037;-78
2022/11/04 07:40:05;;;;;;;7.80;1.33;;;9.90;99.90;;;;;;5043440;28;20106;-80
2022/11/04 07:42:31;;;;;;;5.22;1.35;;;9.90;99.90;;;;;;5012461;28;20064;-80
2022/11/04 07:44:57;;;;;;;7.25;1.30;;;9.80;99.90;;;;;;4998405;28;20033;-80
2022/11/04 07:47:22;;;;;;;4.22;1.80;;;9.90;99.90;;;;;;4998516;28;20045;-80
2022/11/04 07:49:48;;;;;;;7.38;1.08;;;9.90;99.90;;;;;;5013254;28;20040;-77
2022/11/04 07:52:14;;;;;;;5.93;1.33;;;9.80;99.90;;;;;;5014064;28;20036;-78
2022/11/04 07:54:40;;;;;;;7.65;1.40;;;9.80;99.90;;;;;;5009109;28;20401;-78
2022/11/04 07:57:05;;;;;;;4.82;1.23;;;10.20;99.90;;;;;;5011132;28;20037;-79
2022/11/04 07:59:32;;;;;;;7.25;1.27;;;9.90;99.90;;;;;;5030224;28;20049;-79
2022/11/04 08:01:58;;;;;;;7.85;1.45;;;10.00;99.90;;;;;;5023213;28;20041;-79
2022/11/04 08:04:23;;;;;;;6.20;1.30;;;10.10;99.90;;;;;;5022625;28;20580;-80
2022/11/04 08:06:49;;;;;;;7.00;1.33;;;10.10;99.90;;;;;;4994867;28;20033;-78
2022/11/04 08:09:15;;;;;;;4.07;1.40;;;10.20;99.90;;;;;;5014309;28;20056;-81
2022/11/04 08:11:40;;;;;;;5.95;1.50;;;10.30;99.90;;;;;;5002528;28;20041;-80
2022/11/04 08:14:07;;;;;;;4.10;1.23;;;10.40;99.90;;;;;;5017712;28;20047;-83
2022/11/04 08:16:33;;;;;;;5.70;1.40;;;10.40;99.90;;;;;;5000080;28;20045;-80
2022/11/04 08:19:00;;;;;;;4.30;1.55;;;10.50;99.90;;;;;;5013222;28;20049;-83
2022/11/04 08:21:28;;;;;;;5.57;1.20;;;10.50;99.90;;;;;;5011607;28;20400;-82
2022/11/04 08:23:54;;;;;;;5.38;1.38;;;10.60;99.90;;;;;;4990814;28;20599;-81
2022/11/04 08:26:22;;;;;;;4.90;1.10;;;10.70;99.90;;;;;;5010124;28;20041;-83
2022/11/04 08:28:51;;;;;;;6.25;1.10;;;10.80;99.90;;;;;;5025197;28;20083;-81
2022/11/04 08:31:23;;;;;;;3.15;1.13;;;10.80;99.90;;;;;;5027624;28;20049;-83
2022/11/04 08:33:49;;;;;;;3.20;1.10;;;10.90;99.90;;;;;;5040698;28;20056;-81
2022/11/04 08:36:36;;;;;;;5.07;1.10;;;10.90;99.90;;;;;;5044590;28;20041;-79
2022/11/04 08:39:04;;;;;;;3.15;0.93;;;10.90;99.90;;;;;;5025014;28;20559;-80
2022/11/04 08:41:31;;;;;;;5.47;0.93;;;11.00;99.90;;;;;;5041640;28;20037;-83
2022/11/04 08:44:02;;;;;;;5.07;1.00;;;11.10;99.90;;;;;;5029962;28;20044;-83
2022/11/04 08:46:31;;;;;;;4.05;0.88;;;11.20;99.90;;;;;;5024045;28;20041;-78
2022/11/04 08:48:57;;;;;;;5.95;1.00;;;11.30;99.90;;;;;;5026047;28;20086;-79
2022/11/04 08:51:25;;;;;;;4.93;1.20;;;11.20;99.90;;;;;;5009301;28;20128;-82
2022/11/04 08:53:51;;;;;;;2.83;0.90;;;11.40;99.90;;;;;;5024889;28;20049;-82
2022/11/04 08:56:21;;;;;;;5.07;1.20;;;11.50;99.90;;;;;;5007633;28;20045;-81
2022/11/04 08:58:47;;;;;;;5.38;1.00;;;11.60;99.90;;;;;;5043166;28;20112;-80
2022/11/04 09:01:13;;;;;;;3.85;1.40;;;11.60;99.90;;;;;;5025964;28;20040;-80
2022/11/04 09:03:40;;;;;;;5.63;1.05;;;11.50;99.90;;;;;;5032219;28;20037;-80
2022/11/04 09:06:11;;;;;;;3.10;0.95;;;11.50;99.90;;;;;;5031681;28;20033;-78
2022/11/04 09:08:38;;;;;;;4.97;1.13;;;11.50;99.90;;;;;;5014448;28;20155;-78
2022/11/04 09:11:10;;;;;;;4.60;1.10;;;11.50;99.90;;;;;;5006488;28;20037;-80
2022/11/04 09:13:36;;;;;;;2.20;0.90;;;11.60;99.90;;;;;;5034444;28;20044;-80
2022/11/04 09:16:03;;;;;;;6.38;1.80;;;11.70;99.90;;;;;;5028345;28;20696;-79
2022/11/04 09:18:29;;;;;;;3.30;1.10;;;11.80;99.90;;;;;;5037113;28;20048;-80
2022/11/04 09:20:59;;;;;;;3.50;0.98;;;11.80;99.90;;;;;;5034701;28;20120;-79
2022/11/04 09:23:25;;;;;;;5.57;1.00;;;11.90;99.90;;;;;;5005946;28;22563;-79
2022/11/04 09:25:51;;;;;;;6.22;1.10;;;11.90;99.90;;;;;;5009896;28;20048;-80
2022/11/04 09:28:23;;;;;;;5.38;1.10;;;11.90;99.90;;;;;;5006960;28;20088;-81
2022/11/04 09:30:49;;;;;;;6.28;1.17;;;11.90;99.90;;;;;;5026922;28;20049;-80
2022/11/04 09:33:15;;;;;;;4.15;1.17;;;12.00;99.90;;;;;;5026281;28;20040;-81
2022/11/04 09:35:41;;;;;;;6.93;0.98;;;11.90;99.90;;;;;;5010398;28;20052;-80
2022/11/04 09:38:07;;;;;;;4.78;0.93;;;12.00;99.90;;;;;;5001892;28;20033;-79
2022/11/04 09:40:36;;;;;;;3.17;1.00;;;12.10;99.90;;;;;;4996485;28;20033;-78
2022/11/04 09:43:48;;;;;;;3.50;0.90;;;12.30;99.90;;;;;;5047698;28;20044;-80
2022/11/04 09:46:14;;;;;;;3.10;0.70;;;12.50;99.90;;;;;;4969238;28;20038;-79
2022/11/04 09:48:53;;;;;;;2.67;0.93;;;12.60;99.90;;;;;;4986947;28;20039;-79
2022/11/04 09:51:21;;;;;;;3.92;1.13;;;12.80;99.90;;;;;;4989128;28;20133;-77
2022/11/04 09:53:51;;;;;;;5.20;1.55;;;12.90;99.90;;;;;;5008396;28;20057;-79
2022/11/04 09:56:29;;;;;;;3.80;1.08;;;13.00;99.90;;;;;;5028965;28;20070;-80
2022/11/04 09:58:55;;;;;;;3.60;1.55;;;12.90;99.90;;;;;;5035680;28;20045;-79
2022/11/04 10:01:26;;;;;;;4.68;1.13;;;12.90;99.90;;;;;;5012642;28;20065;-79
2022/11/04 10:04:40;;;;;;;5.75;1.35;;;12.90;99.90;;;;;;5013844;28;20025;-78
2022/11/04 10:07:22;;;;;;;4.05;1.20;;;12.80;99.90;;;;;;5020757;28;20515;-81
2022/11/04 10:10:13;;;;;;;4.88;1.00;;;12.70;99.90;;;;;;5033181;28;20033;-79
2022/11/04 10:13:00;;;;;;;4.07;1.15;;;12.50;99.90;;;;;;5007477;28;20070;-79
2022/11/04 10:15:57;;;;;;;5.85;1.23;;;12.60;99.90;;;;;;5021202;28;20131;-77
2022/11/04 10:19:08;;;;;;;8.80;1.50;;;12.60;99.90;;;;;;5038558;28;20156;-77
2022/11/04 10:21:55;;;;;;;5.93;1.20;;;12.60;99.90;;;;;;4949291;28;20039;-77
2022/11/04 10:24:30;;;;;;;2.15;0.80;;;12.50;99.90;;;;;;4959999;28;20074;-77
2022/11/04 10:27:03;;;;;;;4.25;1.02;;;12.40;99.90;;;;;;4995699;28;20052;-80
2022/11/04 10:29:41;;;;;;;2.60;0.70;;;12.30;99.90;;;;;;5008081;28;20036;-79
2022/11/04 10:32:28;;;;;;;8.57;1.27;;;12.30;99.90;;;;;;5030451;28;20060;-78
2022/11/04 10:35:01;;;;;;;3.30;0.88;;;12.20;99.90;;;;;;5031261;28;20044;-78
2022/11/04 10:37:27;;;;;;;4.45;0.85;;;11.90;99.90;;;;;;5025634;28;20039;-78
2022/11/04 10:40:25;;;;;;;4.00;0.93;;;11.80;99.90;;;;;;5028907;28;20078;-79
2022/11/04 10:42:52;;;;;;;5.65;1.35;;;11.90;99.90;;;;;;5010008;28;20146;-78
2022/11/04 10:45:22;;;;;;;3.90;0.95;;;11.90;99.90;;;;;;5007321;28;20509;-78
2022/11/04 10:47:59;;;;;;;5.25;0.90;;;11.90;99.90;;;;;;5020252;28;20172;-79
2022/11/04 10:50:42;;;;;;;4.55;1.23;;;11.90;99.90;;;;;;5027236;28;20044;-78
2022/11/04 10:53:12;;;;;;;8.13;1.38;;;12.00;99.90;;;;;;5012129;28;20033;-77
2022/11/04 10:55:41;;;;;;;3.97;1.08;;;12.10;99.90;;;;;;5030393;28;20045;-79
2022/11/04 10:58:33;;;;;;;6.35;1.52;;;12.20;99.90;;;;;;5032038;28;20041;-79
2022/11/04 11:01:19;;;;;;;4.97;1.17;;;12.00;99.90;;;;;;5014356;28;20053;-80
2022/11/04 11:03:44;;;;;;;4.63;1.30;;;11.70;99.90;;;;;;5031164;28;20147;-77
2022/11/04 11:06:32;;;;;;;8.63;1.23;;;11.60;99.90;;;;;;5024822;28;20152;-78
2022/11/04 11:09:21;;;;;;;3.17;1.05;;;11.60;99.90;;;;;;5025597;28;20041;-78
2022/11/04 11:11:49;;;;;;;4.45;1.15;;;11.50;99.90;;;;;;5026800;28;20049;-79
2022/11/04 11:14:26;;;;;;;5.30;1.40;;;11.40;99.90;;;;;;5025935;28;20510;-79
2022/11/04 11:16:53;;;;;;;6.25;1.10;;;11.50;99.90;;;;;;5028507;28;20041;-77
2022/11/04 11:19:21;;;;;;;7.68;1.30;;;11.60;99.90;;;;;;5040940;28;20310;-79
2022/11/04 11:21:50;;;;;;;7.20;1.80;;;11.80;99.90;;;;;;5024102;28;20037;-77
2022/11/04 11:24:21;;;;;;;4.63;1.10;;;12.10;99.90;;;;;;5027110;28;20032;-79
2022/11/04 11:27:00;;;;;;;5.20;1.20;;;12.30;99.90;;;;;;5004339;28;20045;-78
2022/11/04 11:29:39;;;;;;;4.53;1.05;;;12.60;99.90;;;;;;5008934;28;20056;-77
2022/11/04 11:32:28;;;;;;;6.55;1.40;;;13.00;99.90;;;;;;4998263;28;20064;-79
2022/11/04 11:34:54;;;;;;;8.60;1.50;;;13.40;99.90;;;;;;5020125;28;20130;-79
2022/11/04 11:37:23;;;;;;;6.65;1.30;;;13.60;99.90;;;;;;5001635;28;20044;-81
2022/11/04 11:39:49;;;;;;;6.22;1.77;;;13.60;99.90;;;;;;5020760;28;20033;-80
2022/11/04 11:42:17;;;;;;;4.47;1.30;;;13.60;99.90;;;;;;5005278;28;20120;-79
2022/11/04 11:44:58;;;;;;;5.82;1.42;;;13.70;99.90;;;;;;5052714;28;20451;-79
2022/11/04 11:47:24;;;;;;;4.70;1.25;;;14.00;99.90;;;;;;5049305;28;20103;-80
2022/11/04 11:50:12;;;;;;;4.03;1.27;;;14.10;99.90;;;;;;5029158;28;20291;-78
2022/11/04 11:52:38;;;;;;;5.88;1.20;;;13.90;99.90;;;;;;5039533;22;20060;-81
2022/11/04 11:55:26;;;;;;;7.03;1.20;;;14.10;99.90;;;;;;5014076;28;20064;-81
2022/11/04 11:58:09;;;;;;;5.38;1.42;;;14.20;99.90;;;;;;5036874;28;20040;-81
2022/11/04 12:00:38;;;;;;;3.45;1.15;;;14.10;99.90;;;;;;5032496;28;20081;-81
2022/11/04 12:03:15;;;;;;;7.03;1.13;;;14.10;99.90;;;;;;5026237;28;20068;-83
2022/11/04 12:05:51;;;;;;;6.68;1.50;;;14.00;99.90;;;;;;5035712;28;20392;-80
2022/11/04 12:08:35;;;;;;;5.05;1.27;;;14.00;99.90;;;;;;5041288;28;20039;-80
2022/11/04 12:11:09;;;;;;;7.28;1.65;;;14.10;99.90;;;;;;5049242;28;20416;-81
2022/11/04 12:13:44;;;;;;;7.60;1.70;;;14.10;99.90;;;;;;5047660;28;20123;-80
2022/11/04 12:16:42;;;;;;;4.68;0.88;;;14.20;99.90;;;;;;5033122;28;20102;-82
2022/11/04 12:19:32;;;;;;;8.52;1.50;;;14.20;99.90;;;;;;5042895;28;20263;-81
2022/11/04 12:22:12;;;;;;;9.70;1.55;;;14.40;99.90;;;;;;5047328;28;20048;-80
2022/11/04 12:24:41;;;;;;;8.05;1.35;;;14.40;99.90;;;;;;5050757;28;20051;-80
2022/11/04 12:27:13;;;;;;;5.95;1.55;;;14.40;99.90;;;;;;5030805;28;20040;-82
2022/11/04 12:29:58;;;;;;;6.60;0.90;;;14.40;99.90;;;;;;5050502;28;20040;-81
2022/11/04 12:32:46;;;;;;;11.65;2.45;;;14.30;99.90;;;;;;5041246;28;20140;-82
2022/11/04 12:35:35;;;;;;;15.52;2.03;;;14.30;99.90;;;;;;5043360;28;20086;-81
2022/11/04 12:38:31;;;;;;;7.57;1.42;;;14.30;99.90;;;;;;5043004;28;20116;-82
2022/11/04 12:41:20;;;;;;;12.15;1.88;;;14.20;99.90;;;;;;5024636;28;20103;-84
2022/11/04 12:44:11;;;;;;;10.23;1.20;;;14.10;99.90;;;;;;5047394;28;20403;-82
2022/11/04 12:46:55;;;;;;;7.30;1.30;;;14.00;99.90;;;;;;5040376;28;20109;-82
2022/11/04 12:49:42;;;;;;;8.07;1.30;;;13.90;99.90;;;;;;5028341;28;20864;-82
2022/11/04 12:52:11;;;;;;;8.25;1.92;;;13.80;99.90;;;;;;5045254;28;20051;-81
2022/11/04 12:55:05;;;;;;;9.48;1.60;;;13.80;99.90;;;;;;5035562;28;20040;-82
2022/11/04 12:58:01;;;;;;;9.07;1.65;;;13.90;99.90;;;;;;5014521;28;20037;-79
2022/11/04 13:00:29;;;;;;;8.68;1.67;;;13.80;99.90;;;;;;4986867;28;20098;-81
2022/11/04 13:03:15;;;;;;;4.88;1.30;;;13.90;99.90;;;;;;5012609;28;20050;-81
2022/11/04 13:05:43;;;;;;;10.73;2.53;;;13.70;99.90;;;;;;5032081;28;20485;-79
2022/11/04 13:08:33;;;;;;;6.65;1.25;;;13.70;99.90;;;;;;5035359;28;20036;-78
2022/11/04 13:11:24;;;;;;;6.15;1.20;;;13.60;99.90;;;;;;5032078;28;20101;-79
2022/11/04 13:14:10;;;;;;;10.38;1.58;;;13.60;99.90;;;;;;5046473;28;20056;-80
2022/11/04 13:16:40;;;;;;;7.18;1.63;;;13.50;99.90;;;;;;5041655;28;20048;-79
2022/11/04 13:19:32;;;;;;;10.02;1.50;;;13.40;99.90;;;;;;5045990;28;20040;-78
2022/11/04 13:22:04;;;;;;;14.55;2.03;;;13.40;99.90;;;;;;5029693;28;20105;-80
2022/11/04 13:24:37;;;;;;;8.85;1.42;;;13.40;99.90;;;;;;5046800;28;20085;-81
2022/11/04 13:27:29;;;;;;;7.68;1.52;;;13.40;99.90;;;;;;5056120;28;20033;-80
2022/11/04 13:30:28;;;;;;;6.38;1.08;;;13.40;99.90;;;;;;5050341;28;20518;-80
2022/11/04 13:33:17;;;;;;;10.68;1.38;;;13.30;99.90;;;;;;5037289;28;20036;-80
2022/11/04 13:36:21;;;;;;;7.07;1.48;;;13.30;99.90;;;;;;5054675;28;20542;-81
2022/11/04 13:38:55;;;;;;;5.70;1.00;;;13.30;99.90;;;;;;5035001;28;20115;-80
2022/11/04 13:41:23;;;;;;;;;;;13.20;99.90;;;;;;5057818;28;20071;-80
2022/11/04 13:44:10;;;;;;;5.78;1.05;;;13.20;99.90;;;;;;5060389;28;19928;-80
2022/11/04 13:46:35;;;;;;;10.43;1.50;;;13.10;99.90;;;;;;5066537;28;20062;-80